createdAt,value
2023-05-16T00:00:40.586Z,99474.28
2023-05-16T00:03:29.154Z,99468.31
2023-05-16T00:06:17.655Z,99455.75
2023-05-16T00:09:05.587Z,99458.59
2023-05-16T00:11:53.569Z,99450.56
2023-05-16T00:14:42.889Z,99457.56
2023-05-16T00:17:30.934Z,99454.50
2023-05-16T00:20:23.208Z,99457.06
2023-05-16T00:23:11.298Z,99450.22
2023-05-16T00:25:59.374Z,99435.44
2023-05-16T00:28:47.251Z,99432.78
2023-05-16T00:31:36.711Z,99436.34
2023-05-16T00:34:24.813Z,99449.41
2023-05-16T00:37:12.804Z,99462.38
2023-05-16T00:40:00.776Z,99460.56
2023-05-16T00:42:49.146Z,99457.75
2023-05-16T00:45:37.143Z,99383.38
2023-05-16T00:48:26.844Z,99447.78
2023-05-16T00:51:14.976Z,99449.41
2023-05-16T00:54:04.175Z,99448.19
2023-05-16T00:56:52.127Z,99456.69
2023-05-16T00:59:40.236Z,99447.31
2023-05-16T01:02:30.100Z,99451.22
2023-05-16T01:05:19.878Z,99451.72
2023-05-16T01:08:07.839Z,99455.97
2023-05-16T01:11:03.457Z,99460.03
2023-05-16T01:14:01.890Z,99460.50
2023-05-16T01:16:56.162Z,99452.44
2023-05-16T01:20:05.083Z,99450.69
2023-05-16T01:23:18.575Z,99440.88
2023-05-16T01:26:22.493Z,99444.63
2023-05-16T01:29:10.924Z,99435.13
2023-05-16T01:31:59.307Z,99434.03
2023-05-16T01:34:47.399Z,99371.19
2023-05-16T01:37:40.890Z,99420.38
2023-05-16T01:40:36.613Z,99412.78
2023-05-16T01:43:32.397Z,99422.75
2023-05-16T01:46:26.587Z,99418.69
2023-05-16T01:49:21.369Z,99386.25
2023-05-16T01:52:12.930Z,99393.41
2023-05-16T01:55:01.831Z,99416.22
2023-05-16T01:57:51.265Z,99417.69
2023-05-16T02:00:41.318Z,99397.03
2023-05-16T02:03:29.362Z,99406.06
2023-05-16T02:06:17.240Z,99412.34
2023-05-16T02:09:05.318Z,99397.03
2023-05-16T02:11:53.265Z,99400.72
2023-05-16T02:14:41.259Z,99383.50
2023-05-16T02:17:30.549Z,99389.41
2023-05-16T02:20:18.596Z,99382.50
2023-05-16T02:23:06.631Z,99378.00
2023-05-16T02:25:54.616Z,99367.09
2023-05-16T02:28:42.538Z,99379.84
2023-05-16T02:31:31.724Z,99379.16
2023-05-16T02:34:21.404Z,99369.69
2023-05-16T02:37:10.743Z,99362.25
2023-05-16T02:40:00.557Z,99363.72
2023-05-16T02:42:48.590Z,99357.81
2023-05-16T02:45:36.655Z,99346.69
2023-05-16T02:48:24.630Z,99360.75
2023-05-16T02:51:13.969Z,99366.97
2023-05-16T02:54:01.903Z,99371.78
2023-05-16T02:56:49.983Z,99359.84
2023-05-16T02:59:40.740Z,99365.59
2023-05-16T03:02:29.019Z,99373.88
2023-05-16T03:05:17.247Z,99359.16
2023-05-16T03:08:06.892Z,99355.63
2023-05-16T03:10:54.830Z,99341.34
2023-05-16T03:13:42.823Z,99356.66
2023-05-16T03:16:30.819Z,99365.72
2023-05-16T03:19:18.780Z,99364.66
2023-05-16T03:22:06.878Z,99290.94
2023-05-16T03:24:56.502Z,99353.22
2023-05-16T03:27:44.446Z,99339.38
2023-05-16T03:30:32.403Z,99323.78
2023-05-16T03:33:20.522Z,99333.31
2023-05-16T03:36:09.236Z,99351.31
2023-05-16T03:38:57.152Z,99348.38
2023-05-16T03:41:46.533Z,99355.84
2023-05-16T03:44:34.431Z,99335.31
2023-05-16T03:47:22.417Z,99355.63
2023-05-16T03:50:11.015Z,99362.38
2023-05-16T03:52:59.056Z,99354.69
2023-05-16T03:55:48.635Z,99363.41
2023-05-16T03:58:38.169Z,99367.72
2023-05-16T04:01:26.179Z,99381.47
2023-05-16T04:04:14.347Z,99376.16
2023-05-16T04:07:02.669Z,99384.78
2023-05-16T04:09:50.613Z,99385.78
2023-05-16T04:12:38.641Z,99383.06
2023-05-16T04:15:28.442Z,99380.81
2023-05-16T04:18:16.731Z,99349.00
2023-05-16T04:21:05.248Z,99382.09
2023-05-16T04:23:53.377Z,99378.78
2023-05-16T04:26:41.299Z,99361.38
2023-05-16T04:29:29.276Z,99387.00
2023-05-16T04:32:18.712Z,99381.41
2023-05-16T04:35:09.216Z,99381.72
2023-05-16T04:37:57.216Z,99354.47
2023-05-16T04:40:45.694Z,99389.09
2023-05-16T04:43:33.597Z,99389.91
2023-05-16T04:46:22.114Z,99386.84
2023-05-16T04:49:12.247Z,99389.91
2023-05-16T04:52:00.255Z,99379.66
2023-05-16T04:54:48.145Z,99377.47
2023-05-16T04:57:36.088Z,99371.06
2023-05-16T05:00:24.426Z,99380.53
2023-05-16T05:03:12.575Z,99385.31
2023-05-16T05:06:02.080Z,99374.56
2023-05-16T05:08:50.450Z,99380.44
2023-05-16T05:11:38.372Z,99381.13
2023-05-16T05:14:26.338Z,99381.63
2023-05-16T05:17:14.342Z,99387.31
2023-05-16T05:20:03.284Z,99390.88
2023-05-16T05:22:52.771Z,99397.31
2023-05-16T05:25:41.117Z,99338.25
2023-05-16T05:28:29.088Z,99372.81
2023-05-16T05:31:17.095Z,99381.38
2023-05-16T05:34:05.092Z,99362.09
2023-05-16T05:36:52.975Z,99380.59
2023-05-16T05:39:42.335Z,99385.41
2023-05-16T05:42:31.540Z,99380.66
2023-05-16T05:45:19.639Z,99379.94
2023-05-16T05:48:08.257Z,99363.41
2023-05-16T05:50:56.332Z,99373.97
2023-05-16T05:53:44.642Z,99375.75
2023-05-16T05:56:34.361Z,99362.47
2023-05-16T05:59:22.311Z,99370.59
2023-05-16T06:02:10.552Z,99370.22
2023-05-16T06:04:58.567Z,99363.31
2023-05-16T06:07:46.550Z,99349.06
2023-05-16T06:10:34.469Z,99368.38
2023-05-16T06:13:23.848Z,99371.09
2023-05-16T06:16:11.801Z,99365.91
2023-05-16T06:18:59.754Z,99381.19
2023-05-16T06:21:47.735Z,99374.22
2023-05-16T06:24:35.968Z,99376.06
2023-05-16T06:27:23.932Z,99365.69
2023-05-16T06:30:13.843Z,99375.81
2023-05-16T06:33:01.891Z,99372.13
2023-05-16T06:35:49.943Z,99373.41
2023-05-16T06:38:37.993Z,99365.84
2023-05-16T06:41:26.479Z,99360.72
2023-05-16T06:44:14.703Z,99348.63
2023-05-16T06:47:04.191Z,99341.69
2023-05-16T06:49:52.239Z,99340.22
2023-05-16T06:52:42.567Z,99339.34
2023-05-16T06:55:33.437Z,99339.88
2023-05-16T06:58:21.787Z,99338.88
2023-05-16T07:01:09.813Z,99340.13
2023-05-16T07:03:59.361Z,99327.72
2023-05-16T07:06:47.536Z,99271.22
2023-05-16T07:09:35.684Z,99331.75
2023-05-16T07:12:23.668Z,99313.63
2023-05-16T07:15:13.283Z,99323.75
2023-05-16T07:18:01.406Z,99350.59
2023-05-16T07:20:51.130Z,99347.19
2023-05-16T07:23:39.175Z,99344.16
2023-05-16T07:26:27.170Z,99355.56
2023-05-16T07:29:15.668Z,99342.34
2023-05-16T07:32:03.719Z,99345.03
2023-05-16T07:34:51.808Z,99331.75
2023-05-16T07:37:42.606Z,99323.78
2023-05-16T07:40:30.620Z,99308.06
2023-05-16T07:43:18.621Z,99322.88
2023-05-16T07:46:07.008Z,99323.50
2023-05-16T07:48:55.097Z,99294.41
2023-05-16T07:51:43.097Z,99302.63
2023-05-16T07:54:33.353Z,99298.66
2023-05-16T07:57:22.745Z,99287.06
2023-05-16T08:00:13.691Z,99289.22
2023-05-16T08:03:01.852Z,99293.91
2023-05-16T08:05:50.270Z,99287.31
2023-05-16T08:08:38.490Z,99291.75
2023-05-16T08:11:27.981Z,99287.53
2023-05-16T08:14:15.975Z,99277.28
2023-05-16T08:17:04.030Z,99292.38
2023-05-16T08:19:51.988Z,99308.06
2023-05-16T08:22:40.200Z,99318.47
2023-05-16T08:25:28.520Z,99251.63
2023-05-16T08:28:18.135Z,99319.97
2023-05-16T08:31:06.200Z,99340.66
2023-05-16T08:33:54.231Z,99346.13
2023-05-16T08:36:42.232Z,99344.56
2023-05-16T08:39:30.761Z,99363.31
2023-05-16T08:42:18.764Z,99342.88
2023-05-16T08:45:09.435Z,99328.47
2023-05-16T08:47:57.694Z,99313.38
2023-05-16T08:50:45.737Z,99249.78
2023-05-16T08:53:41.268Z,99301.19
2023-05-16T08:56:29.504Z,99303.63
2023-05-16T08:59:17.784Z,99306.06
2023-05-16T09:02:07.861Z,99280.09
2023-05-16T09:04:58.581Z,99293.78
2023-05-16T09:07:47.276Z,99309.41
2023-05-16T09:10:35.476Z,99299.84
2023-05-16T09:13:23.502Z,99282.28
2023-05-16T09:16:13.517Z,99297.88
2023-05-16T09:19:04.526Z,99287.72
2023-05-16T09:21:52.776Z,99294.47
2023-05-16T09:24:41.149Z,99275.13
2023-05-16T09:27:32.214Z,99287.38
2023-05-16T09:30:23.218Z,99278.69
2023-05-16T09:33:11.310Z,99286.06
2023-05-16T09:36:02.322Z,99272.16
2023-05-16T09:38:52.934Z,99258.06
2023-05-16T09:41:41.181Z,99255.34
2023-05-16T09:44:29.869Z,99258.88
2023-05-16T09:47:18.597Z,99257.38
2023-05-16T09:50:07.906Z,99233.66
2023-05-16T09:52:58.306Z,99243.16
2023-05-16T09:55:46.356Z,99240.59
2023-05-16T09:58:36.243Z,99242.94
2023-05-16T10:01:25.039Z,99226.19
2023-05-16T10:04:16.123Z,99224.25
2023-05-16T10:07:05.613Z,99213.41
2023-05-16T10:09:57.265Z,99227.69
2023-05-16T10:12:46.328Z,99205.59
2023-05-16T10:15:35.606Z,99191.59
2023-05-16T10:18:26.531Z,99179.97
2023-05-16T10:21:17.065Z,99185.91
2023-05-16T10:24:08.224Z,99155.56
2023-05-16T10:26:57.892Z,99125.84
2023-05-16T10:29:54.217Z,99101.00
2023-05-16T10:32:43.383Z,99093.97
2023-05-16T10:35:32.829Z,99106.28
2023-05-16T10:38:22.498Z,99144.66
2023-05-16T10:41:11.419Z,99204.22
2023-05-16T10:44:02.520Z,99218.00
2023-05-16T10:46:50.639Z,99201.25
2023-05-16T10:49:42.459Z,99211.44
2023-05-16T10:52:35.042Z,99192.63
2023-05-16T10:55:23.486Z,99192.69
2023-05-16T10:58:11.413Z,99128.63
2023-05-16T11:01:21.826Z,99175.63
2023-05-16T11:04:12.953Z,99177.72
2023-05-16T11:07:02.478Z,99172.72
2023-05-16T11:10:08.282Z,99156.47
2023-05-16T11:12:58.342Z,99142.94
2023-05-16T11:15:46.451Z,99126.06
2023-05-16T11:18:35.950Z,99128.59
2023-05-16T11:21:24.005Z,99106.59
2023-05-16T11:24:31.276Z,99114.34
2023-05-16T11:27:24.767Z,99112.47
2023-05-16T11:30:15.662Z,99107.88
2023-05-16T11:33:04.340Z,99117.88
2023-05-16T11:36:15.914Z,99112.47
2023-05-16T11:39:09.542Z,99120.19
2023-05-16T11:41:57.639Z,99117.91
2023-05-16T11:44:46.002Z,99121.22
2023-05-16T11:47:34.080Z,99133.09
2023-05-16T11:50:24.624Z,99129.75
2023-05-16T11:53:14.545Z,99122.88
2023-05-16T11:56:03.594Z,99113.72
2023-05-16T11:58:51.902Z,99139.75
2023-05-16T12:01:41.557Z,99136.00
2023-05-16T12:04:29.684Z,99131.63
2023-05-16T12:07:17.783Z,99141.41
2023-05-16T12:10:09.012Z,99144.97
2023-05-16T12:12:57.482Z,99137.91
2023-05-16T12:15:45.770Z,99144.38
2023-05-16T12:18:33.834Z,99138.91
2023-05-16T12:21:23.598Z,99143.31
2023-05-16T12:24:13.321Z,99122.47
2023-05-16T12:27:02.683Z,99124.13
2023-05-16T12:29:51.667Z,99115.38
2023-05-16T12:32:39.995Z,99123.91
2023-05-16T12:35:32.282Z,99120.38
2023-05-16T12:38:21.565Z,99114.97
2023-05-16T12:41:10.338Z,99109.56
2023-05-16T12:44:13.495Z,99119.97
2023-05-16T12:47:01.478Z,99118.94
2023-05-16T12:49:51.368Z,99116.00
2023-05-16T12:52:39.408Z,99103.25
2023-05-16T12:55:27.503Z,99089.72
2023-05-16T12:58:16.467Z,99097.22
2023-05-16T13:01:06.602Z,99097.69
2023-05-16T13:03:54.952Z,99096.16
2023-05-16T13:06:57.798Z,99096.78
2023-05-16T13:09:47.509Z,99076.38
2023-05-16T13:12:35.413Z,99070.75
2023-05-16T13:15:23.508Z,99057.41
2023-05-16T13:18:12.996Z,99052.16
2023-05-16T13:21:01.102Z,99050.06
2023-05-16T13:23:49.090Z,99058.19
2023-05-16T13:26:37.521Z,99057.78
2023-05-16T13:29:25.586Z,99050.66
2023-05-16T13:32:13.850Z,99051.03
2023-05-16T13:35:04.080Z,99042.28
2023-05-16T13:37:53.460Z,99033.97
2023-05-16T13:40:44.543Z,99032.47
2023-05-16T13:43:32.597Z,99032.28
2023-05-16T13:46:20.742Z,99023.47
2023-05-16T13:49:08.800Z,98966.44
2023-05-16T13:51:58.666Z,99021.41
2023-05-16T13:54:46.616Z,99014.66
2023-05-16T13:57:34.759Z,98944.16
2023-05-16T14:03:13.813Z,99013.63
2023-05-16T14:06:02.017Z,99005.06
2023-05-16T14:08:51.868Z,99012.59
2023-05-16T14:11:40.066Z,99000.94
2023-05-16T14:14:28.032Z,99000.50
2023-05-16T14:17:16.258Z,98994.06
2023-05-16T14:20:06.091Z,99007.66
2023-05-16T14:22:54.289Z,98980.16
2023-05-16T14:25:43.674Z,99002.56
2023-05-16T14:28:32.838Z,98987.84
2023-05-16T14:31:21.396Z,99003.59
2023-05-16T14:34:09.436Z,98996.75
2023-05-16T14:36:57.438Z,98994.72
2023-05-16T14:39:46.651Z,99004.44
2023-05-16T14:42:36.102Z,99004.47
2023-05-16T14:45:24.105Z,99007.59
2023-05-16T14:48:12.237Z,99005.56
2023-05-16T14:51:00.329Z,98986.81
2023-05-16T14:53:48.403Z,99008.50
2023-05-16T14:56:36.537Z,99006.03
2023-05-16T14:59:26.240Z,99021.69
2023-05-16T15:02:14.321Z,99022.91
2023-05-16T15:05:02.443Z,99021.47
2023-05-16T15:07:51.314Z,99019.00
2023-05-16T15:10:39.420Z,99010.84
2023-05-16T15:13:27.390Z,99014.00
2023-05-16T15:16:16.909Z,98999.63
2023-05-16T15:19:05.258Z,98998.34
2023-05-16T15:21:53.287Z,99001.88
2023-05-16T15:24:41.365Z,99004.63
2023-05-16T15:27:29.640Z,98992.09
2023-05-16T15:30:17.579Z,98996.06
2023-05-16T15:33:07.046Z,98995.41
2023-05-16T15:35:55.010Z,99005.44
2023-05-16T15:38:45.632Z,99010.22
2023-05-16T15:42:00.641Z,99014.81
2023-05-16T15:44:42.051Z,99016.94
2023-05-16T15:47:30.114Z,99016.06
2023-05-16T15:50:19.555Z,99008.34
2023-05-16T15:53:07.583Z,99007.31
2023-05-16T15:55:56.470Z,99005.03
2023-05-16T15:58:46.821Z,98994.41
2023-05-16T16:01:34.933Z,99001.50
2023-05-16T16:04:23.848Z,99000.69
2023-05-16T16:07:13.771Z,99007.38
2023-05-16T16:10:01.756Z,99000.91
2023-05-16T16:13:00.413Z,99013.22
2023-05-16T16:15:48.559Z,99012.84
2023-05-16T16:18:36.643Z,99013.06
2023-05-16T16:21:24.933Z,99016.16
2023-05-16T16:24:15.218Z,99016.19
2023-05-16T16:27:03.259Z,99010.13
2023-05-16T16:29:51.261Z,99015.78
2023-05-16T16:32:39.795Z,99008.09
2023-05-16T16:35:28.447Z,99004.97
2023-05-16T16:38:17.572Z,99007.25
2023-05-16T16:41:06.950Z,99011.03
2023-05-16T16:43:54.950Z,98995.16
2023-05-16T16:46:43.037Z,98999.16
2023-05-16T16:49:31.523Z,99008.91
2023-05-16T16:52:19.626Z,99003.75
2023-05-16T16:55:08.918Z,98993.13
2023-05-16T16:57:58.353Z,99001.25
2023-05-16T17:00:46.390Z,99006.66
2023-05-16T17:03:34.435Z,99007.47
2023-05-16T17:06:22.488Z,99004.97
2023-05-16T17:09:13.985Z,99004.16
2023-05-16T17:12:07.948Z,99004.56
2023-05-16T17:14:57.367Z,99003.09
2023-05-16T17:17:46.048Z,99023.91
2023-05-16T17:20:34.512Z,99013.72
2023-05-16T17:23:22.553Z,99005.38
2023-05-16T17:26:10.618Z,99005.59
2023-05-16T17:29:00.257Z,99012.03
2023-05-16T17:31:49.757Z,99011.22
2023-05-16T17:34:37.912Z,99017.88
2023-05-16T17:37:26.592Z,99025.78
2023-05-16T17:40:17.222Z,99028.50
2023-05-16T17:43:05.657Z,99027.88
2023-05-16T17:45:53.751Z,99022.84
2023-05-16T17:48:43.751Z,99029.09
2023-05-16T17:51:46.589Z,99017.41
2023-05-16T17:54:34.573Z,99017.81
2023-05-16T17:57:22.578Z,99046.34
2023-05-16T18:00:11.546Z,99037.38
2023-05-16T18:02:59.943Z,99034.25
2023-05-16T18:05:49.684Z,99047.75
2023-05-16T18:08:37.803Z,99057.75
2023-05-16T18:11:26.108Z,99066.72
2023-05-16T18:14:15.622Z,99068.59
2023-05-16T18:17:03.922Z,99068.97
2023-05-16T18:19:52.763Z,99070.03
2023-05-16T18:22:43.013Z,99064.22
2023-05-16T18:25:31.701Z,99060.25
2023-05-16T18:28:19.809Z,99072.09
2023-05-16T18:31:08.044Z,99080.22
2023-05-16T18:33:56.499Z,99090.63
2023-05-16T18:36:44.883Z,99084.56
2023-05-16T18:39:34.416Z,99088.47
2023-05-16T18:42:22.570Z,99095.38
2023-05-16T18:45:11.482Z,99062.75
2023-05-16T18:47:59.673Z,99100.69
2023-05-16T18:50:48.158Z,99093.81
2023-05-16T18:53:36.642Z,99092.97
2023-05-16T18:56:26.875Z,99052.28
2023-05-16T18:59:15.173Z,99098.72
2023-05-16T19:02:04.607Z,99102.22
2023-05-16T19:04:53.345Z,99110.78
2023-05-16T19:07:41.702Z,99108.63
2023-05-16T19:10:30.110Z,99100.88
2023-05-16T19:13:19.975Z,99097.75
2023-05-16T19:16:08.528Z,99036.38
2023-05-16T19:18:58.364Z,99105.84
2023-05-16T19:21:47.943Z,99102.28
2023-05-16T19:24:36.317Z,99115.53
2023-05-16T19:27:24.718Z,99109.31
2023-05-16T19:30:14.920Z,99123.19
2023-05-16T19:33:03.614Z,99140.97
2023-05-16T19:35:53.891Z,99147.22
2023-05-16T19:38:42.332Z,99153.53
2023-05-16T19:41:31.294Z,99130.34
2023-05-16T19:44:19.717Z,99155.69
2023-05-16T19:47:09.799Z,99157.75
2023-05-16T19:49:58.367Z,99142.22
2023-05-16T19:52:46.862Z,99119.75
2023-05-16T19:55:38.148Z,99109.72
2023-05-16T19:58:26.796Z,99088.97
2023-05-16T20:01:15.560Z,99068.94
2023-05-16T20:04:05.691Z,99095.13
2023-05-16T20:06:54.025Z,99105.72
2023-05-16T20:09:42.168Z,99135.09
2023-05-16T20:12:30.469Z,99148.47
2023-05-16T20:15:19.104Z,99128.22
2023-05-16T20:18:07.416Z,99117.06
2023-05-16T20:20:58.572Z,99103.97
2023-05-16T20:23:46.898Z,99091.97
2023-05-16T20:26:34.901Z,99093.19
2023-05-16T20:29:22.910Z,99089.63
2023-05-16T20:32:10.995Z,99092.91
2023-05-16T20:34:59.159Z,99106.28
2023-05-16T20:37:48.545Z,99108.44
2023-05-16T20:40:36.584Z,99092.91
2023-05-16T20:43:26.604Z,99111.03
2023-05-16T20:46:14.915Z,99100.69
2023-05-16T20:49:02.986Z,99093.94
2023-05-16T20:51:51.119Z,99110.66
2023-05-16T20:54:41.840Z,99107.28
2023-05-16T20:57:29.853Z,99042.38
2023-05-16T21:00:18.187Z,99110.09
2023-05-16T21:03:06.340Z,99112.03
2023-05-16T21:05:54.377Z,99107.84
2023-05-16T21:08:42.335Z,99108.03
2023-05-16T21:11:32.939Z,99127.56
2023-05-16T21:14:20.956Z,99137.28
2023-05-16T21:17:08.987Z,99125.88
2023-05-16T21:19:57.044Z,99117.31
2023-05-16T21:22:45.226Z,99110.63
2023-05-16T21:25:33.467Z,99115.38
2023-05-16T21:28:22.813Z,99117.53
2023-05-16T21:31:10.792Z,99127.03
2023-05-16T21:33:58.842Z,99135.78
2023-05-16T21:36:46.853Z,99149.41
2023-05-16T21:39:34.785Z,99157.97
2023-05-16T21:42:22.790Z,99178.13
2023-05-16T21:45:16.556Z,99189.59
2023-05-16T21:48:04.957Z,99187.88
2023-05-16T21:50:53.047Z,99170.16
2023-05-16T21:53:40.996Z,99165.94
2023-05-16T21:56:29.237Z,99158.59
2023-05-16T21:59:17.264Z,99159.97
2023-05-16T22:02:07.869Z,99160.63
2023-05-16T22:04:55.991Z,99160.16
2023-05-16T22:07:44.424Z,99139.03
2023-05-16T22:10:32.518Z,99116.19
2023-05-16T22:13:20.702Z,99095.38
2023-05-16T22:16:08.746Z,99064.88
2023-05-16T22:18:58.267Z,99043.94
2023-05-16T22:21:46.244Z,99047.47
2023-05-16T22:24:34.360Z,99063.19
2023-05-16T22:27:22.436Z,99071.03
2023-05-16T22:30:10.862Z,99059.72
2023-05-16T22:32:58.954Z,99027.91
2023-05-16T22:35:48.483Z,99042.22
2023-05-16T22:38:36.484Z,99057.13
2023-05-16T22:41:24.504Z,99065.00
2023-05-16T22:44:12.503Z,99089.69
2023-05-16T22:47:00.614Z,99087.50
2023-05-16T22:49:48.627Z,99084.69
2023-05-16T22:52:41.197Z,99084.00
2023-05-16T22:55:29.542Z,99077.59
2023-05-16T22:58:17.921Z,99114.59
2023-05-16T23:01:06.019Z,99095.00
2023-05-16T23:03:54.041Z,99108.97
2023-05-16T23:06:42.094Z,99088.13
2023-05-16T23:09:31.497Z,99075.28
2023-05-16T23:12:21.262Z,99084.22
2023-05-16T23:15:10.509Z,99092.31
2023-05-16T23:17:58.657Z,99097.31
2023-05-16T23:20:46.982Z,99083.44
2023-05-16T23:23:35.145Z,99052.00
2023-05-16T23:26:24.617Z,99070.69
2023-05-16T23:29:12.629Z,99085.81
2023-05-16T23:32:00.591Z,99090.03
2023-05-16T23:34:48.609Z,99080.66
2023-05-16T23:37:36.855Z,99064.75
2023-05-16T23:40:24.817Z,99072.28
2023-05-16T23:43:14.240Z,99094.44
2023-05-16T23:46:02.254Z,99089.78
2023-05-16T23:48:50.498Z,99094.13
2023-05-16T23:51:52.791Z,99094.47
2023-05-16T23:54:45.485Z,99078.41
2023-05-16T23:57:33.463Z,99088.16
